Skip Navigation LinksHome page > Weather > Current weather Skip Navigation Links

Current Weather

Dorval Intl. Apt., Montréal, P.Q.

For information only: do not use for flight planning or navigation.
Latest weather
Observation time Monday, June 21, 2021 9:00 PM EDT
Local time Monday, June 21, 2021 9:46 PM EDT
Flight conditions Visual Meteorological Conditions
Winds
Wind direction Southwest (220°)
Wind speed 18 mph
Wind gusting to 31 mph
Visibility 15 mi.
Sky condition
Ceiling 8,000 ft. broken clouds
Cloud layer few clouds 3,000 ft.
Cloud layer broken clouds 8,000 ft.
Cloud layer broken clouds 25,000 ft.
Temperature 79°F
Dewpoint 66°F
Altimeter 29.40 in.Hg
Derived measurements
Relative humidity 65%
Heat index 79°F
Density altitude 2286 ft.
Sea-level pressure 29.40 in.Hg
Remarks
Pressure rising rapidly.
METAR CYUL 220100Z 22016G27KT 15SM FEW030TCU BKN080 BKN250 26/19 A2940 RMK TCU1ACC5CI1 PRESRR SLP956 DENSITY ALT 2000FT

Settings

Location code

InnerDrive.Weather 4.0.6770.0 Release CLR 4.0.30319.42000
Copyright ©2018 Inner Drive Technology. All rights reserved. Portions Copyright ©1986-2018 David Braverman.

Find weather

Site navigation


Skip Navigation Links

Place info

Page info

PayPal - The safer, easier way to pay online!

Return home.

Copyright ©2021 Inner Drive Technology. Purveyors of fine, hand-crafted computer software. Page printed 2021-06-22T01:46:36 UTC.